Wilmot, Ohio
Current Conditions -  °F | °C
As of 8:53 AM on Wednesday 28 Jan 2015 (Local Time) from KPHD Reporting Station
Overcast Overcast  
Wind Chill: 13°   Ceiling: 800
Heat Index: 13°   Visibility: 7mi
Dew Point:   Wind: 3mph
Humidity: 84%   Direction: 270°W
Pressure: 30.38"   Gusts: NA
Location:  40.66°N, 81.63°W
Report Text: KPHD 281353Z AUTO 27003KT 7SM OVC008 M11/M13 A3038 RMK AO2 SLP303 T11061128
Loading
Personal Weather Stations






























Interactive Weather Map New forecast layout! Learn more

10-Day Weather Forecast

Advertisements
Track Severe Weather on mobile